sensor_id;sensor_type;location;lat;lon;timestamp;pressure;altitude;pressure_sealevel;temperature;humidity
73748;BME280;62056;52.130;5.428;2023-12-04T00:00:03;101539.53;;;1.03;85.10
73748;BME280;62056;52.130;5.428;2023-12-04T00:02:31;101535.28;;;1.01;83.81
73748;BME280;62056;52.130;5.428;2023-12-04T00:04:57;101537.53;;;1.05;85.01
73748;BME280;62056;52.130;5.428;2023-12-04T00:07:24;101537.13;;;1.01;83.76
73748;BME280;62056;52.130;5.428;2023-12-04T00:09:51;101534.91;;;1.05;86.30
73748;BME280;62056;52.130;5.428;2023-12-04T00:12:17;101529.66;;;1.05;83.83
73748;BME280;62056;52.130;5.428;2023-12-04T00:14:44;101525.22;;;1.05;84.63
73748;BME280;62056;52.130;5.428;2023-12-04T00:17:10;101531.06;;;1.07;84.68
73748;BME280;62056;52.130;5.428;2023-12-04T00:19:37;101523.00;;;1.09;88.14
73748;BME280;62056;52.130;5.428;2023-12-04T00:22:04;101513.72;;;1.06;87.50
73748;BME280;62056;52.130;5.428;2023-12-04T00:24:31;101517.16;;;1.07;85.21
73748;BME280;62056;52.130;5.428;2023-12-04T00:26:57;101512.91;;;1.06;85.21
73748;BME280;62056;52.130;5.428;2023-12-04T00:29:24;101510.09;;;1.07;84.53
73748;BME280;62056;52.130;5.428;2023-12-04T00:31:51;101508.06;;;1.09;86.78
73748;BME280;62056;52.130;5.428;2023-12-04T00:34:17;101505.66;;;1.08;85.57
73748;BME280;62056;52.130;5.428;2023-12-04T00:36:44;101505.47;;;1.09;86.01
73748;BME280;62056;52.130;5.428;2023-12-04T00:39:11;101496.81;;;1.09;85.62
73748;BME280;62056;52.130;5.428;2023-12-04T00:41:37;101493.34;;;1.08;86.40
73748;BME280;62056;52.130;5.428;2023-12-04T00:44:05;101495.97;;;1.08;84.67
73748;BME280;62056;52.130;5.428;2023-12-04T00:46:32;101494.19;;;1.09;85.42
73748;BME280;62056;52.130;5.428;2023-12-04T00:48:58;101502.84;;;1.09;85.94
73748;BME280;62056;52.130;5.428;2023-12-04T00:51:25;101502.84;;;1.09;84.24
73748;BME280;62056;52.130;5.428;2023-12-04T00:53:53;101493.34;;;1.08;85.75
73748;BME280;62056;52.130;5.428;2023-12-04T00:56:19;101480.25;;;1.08;86.01
73748;BME280;62056;52.130;5.428;2023-12-04T00:58:47;101481.28;;;1.07;84.62
73748;BME280;62056;52.130;5.428;2023-12-04T01:01:13;101481.28;;;1.07;85.01
73748;BME280;62056;52.130;5.428;2023-12-04T01:03:40;101478.66;;;1.07;83.98
73748;BME280;62056;52.130;5.428;2023-12-04T01:06:07;101476.03;;;1.07;84.90
73748;BME280;62056;52.130;5.428;2023-12-04T01:08:36;101476.03;;;1.07;86.38
73748;BME280;62056;52.130;5.428;2023-12-04T01:11:03;101468.97;;;1.08;87.43
73748;BME280;62056;52.130;5.428;2023-12-04T01:13:29;101473.22;;;1.09;89.53
73748;BME280;62056;52.130;5.428;2023-12-04T01:15:56;101473.41;;;1.07;85.87
73748;BME280;62056;52.130;5.428;2023-12-04T01:18:23;101471.78;;;1.06;85.50
73748;BME280;62056;52.130;5.428;2023-12-04T01:20:49;101472.41;;;1.08;88.06
73748;BME280;62056;52.130;5.428;2023-12-04T01:23:16;101468.97;;;1.08;87.49
73748;BME280;62056;52.130;5.428;2023-12-04T01:25:43;101471.59;;;1.08;86.76
73748;BME280;62056;52.130;5.428;2023-12-04T01:28:11;101466.34;;;1.08;87.82
73748;BME280;62056;52.130;5.428;2023-12-04T01:30:38;101455.09;;;1.07;87.39
73748;BME280;62056;52.130;5.428;2023-12-04T01:33:04;101455.88;;;1.08;86.43
73748;BME280;62056;52.130;5.428;2023-12-04T01:35:31;101456.69;;;1.08;86.68
73748;BME280;62056;52.130;5.428;2023-12-04T01:37:58;101444.41;;;1.09;88.33
73748;BME280;62056;52.130;5.428;2023-12-04T01:40:26;101445.59;;;1.06;88.30
73748;BME280;62056;52.130;5.428;2023-12-04T01:42:53;101440.59;;;1.05;86.98
73748;BME280;62056;52.130;5.428;2023-12-04T01:45:20;101441.38;;;1.05;86.41
73748;BME280;62056;52.130;5.428;2023-12-04T01:47:47;101435.34;;;1.05;86.85
73748;BME280;62056;52.130;5.428;2023-12-04T01:50:14;101441.38;;;1.05;86.52
73748;BME280;62056;52.130;5.428;2023-12-04T01:52:42;101437.16;;;1.04;87.91
73748;BME280;62056;52.130;5.428;2023-12-04T01:55:09;101437.38;;;1.03;86.36
73748;BME280;62056;52.130;5.428;2023-12-04T01:57:37;101430.50;;;1.01;85.17
73748;BME280;62056;52.130;5.428;2023-12-04T02:00:04;101435.16;;;0.99;85.33
73748;BME280;62056;52.130;5.428;2023-12-04T02:02:39;101434.38;;;0.99;85.45
73748;BME280;62056;52.130;5.428;2023-12-04T02:05:11;101420.47;;;0.98;85.85
73748;BME280;62056;52.130;5.428;2023-12-04T02:07:37;101422.84;;;1.00;85.93
73748;BME280;62056;52.130;5.428;2023-12-04T02:10:06;101415.22;;;0.98;85.50
73748;BME280;62056;52.130;5.428;2023-12-04T02:12:33;101413.59;;;0.97;87.45
73748;BME280;62056;52.130;5.428;2023-12-04T02:15:00;101417.25;;;0.96;85.99
73748;BME280;62056;52.130;5.428;2023-12-04T02:17:27;101407.56;;;0.97;86.78
73748;BME280;62056;52.130;5.428;2023-12-04T02:19:55;101404.16;;;0.96;86.49
73748;BME280;62056;52.130;5.428;2023-12-04T02:22:23;101400.50;;;0.97;87.78
73748;BME280;62056;52.130;5.428;2023-12-04T02:24:50;101404.16;;;0.96;87.11
73748;BME280;62056;52.130;5.428;2023-12-04T02:27:28;101405.97;;;0.96;86.59
73748;BME280;62056;52.130;5.428;2023-12-04T02:30:00;101398.91;;;0.96;86.57
73748;BME280;62056;52.130;5.428;2023-12-04T02:32:29;101402.34;;;0.97;88.10
73748;BME280;62056;52.130;5.428;2023-12-04T02:34:59;101394.47;;;0.97;87.67
73748;BME280;62056;52.130;5.428;2023-12-04T02:37:29;101386.81;;;0.95;86.38
73748;BME280;62056;52.130;5.428;2023-12-04T02:39:56;101386.41;;;0.98;89.18
73748;BME280;62056;52.130;5.428;2023-12-04T02:42:23;101378.56;;;0.98;87.73
73748;BME280;62056;52.130;5.428;2023-12-04T02:44:53;101365.47;;;0.98;89.07
73748;BME280;62056;52.130;5.428;2023-12-04T02:47:19;101368.88;;;0.99;87.59
73748;BME280;62056;52.130;5.428;2023-12-04T02:49:46;101361.22;;;0.97;87.45
73748;BME280;62056;52.130;5.428;2023-12-04T02:52:13;101356.81;;;0.98;87.95
73748;BME280;62056;52.130;5.428;2023-12-04T02:54:39;101348.94;;;0.98;87.06
73748;BME280;62056;52.130;5.428;2023-12-04T02:57:06;101361.81;;;0.99;87.25
73748;BME280;62056;52.130;5.428;2023-12-04T02:59:33;101353.16;;;0.99;86.99
73748;BME280;62056;52.130;5.428;2023-12-04T03:02:00;101343.72;;;0.98;86.30
73748;BME280;62056;52.130;5.428;2023-12-04T03:04:28;101340.06;;;0.99;86.89
73748;BME280;62056;52.130;5.428;2023-12-04T03:06:56;101335.84;;;0.98;86.67
73748;BME280;62056;52.130;5.428;2023-12-04T03:09:23;101342.09;;;0.97;87.23
73748;BME280;62056;52.130;5.428;2023-12-04T03:12:10;101331.63;;;0.97;86.73
73748;BME280;62056;52.130;5.428;2023-12-04T03:14:36;101330.63;;;0.98;88.10
73748;BME280;62056;52.130;5.428;2023-12-04T03:17:03;101322.75;;;0.98;88.42
73748;BME280;62056;52.130;5.428;2023-12-04T03:19:30;101323.75;;;0.97;87.29
73748;BME280;62056;52.130;5.428;2023-12-04T03:21:57;101320.53;;;0.95;86.36
73748;BME280;62056;52.130;5.428;2023-12-04T03:24:24;101315.91;;;0.97;86.89
73748;BME280;62056;52.130;5.428;2023-12-04T03:26:50;101311.47;;;0.97;87.01
73748;BME280;62056;52.130;5.428;2023-12-04T03:29:17;101313.47;;;0.95;86.75
73748;BME280;62056;52.130;5.428;2023-12-04T03:31:43;101304.63;;;0.96;86.70
73748;BME280;62056;52.130;5.428;2023-12-04T03:34:10;101304.63;;;0.96;87.33
73748;BME280;62056;52.130;5.428;2023-12-04T03:36:37;101299.38;;;0.96;88.02
73748;BME280;62056;52.130;5.428;2023-12-04T03:39:03;101297.19;;;0.93;87.99
73748;BME280;62056;52.130;5.428;2023-12-04T03:41:30;101288.31;;;0.94;87.55
73748;BME280;62056;52.130;5.428;2023-12-04T03:43:57;101287.53;;;0.94;87.54
73748;BME280;62056;52.130;5.428;2023-12-04T03:46:23;101286.69;;;0.93;86.33
73748;BME280;62056;52.130;5.428;2023-12-04T03:48:50;101285.09;;;0.92;87.15
73748;BME280;62056;52.130;5.428;2023-12-04T03:51:17;101282.50;;;0.92;86.69
73748;BME280;62056;52.130;5.428;2023-12-04T03:53:44;101274.63;;;0.92;86.49
73748;BME280;62056;52.130;5.428;2023-12-04T03:56:10;101274.63;;;0.92;87.53
73748;BME280;62056;52.130;5.428;2023-12-04T03:58:38;101268.59;;;0.92;86.70
73748;BME280;62056;52.130;5.428;2023-12-04T04:01:05;101268.59;;;0.92;86.33
73748;BME280;62056;52.130;5.428;2023-12-04T04:03:32;101258.31;;;0.90;86.29
73748;BME280;62056;52.130;5.428;2023-12-04T04:05:59;101265.16;;;0.91;86.64
73748;BME280;62056;52.130;5.428;2023-12-04T04:08:25;101260.75;;;0.92;85.93
73748;BME280;62056;52.130;5.428;2023-12-04T04:10:53;101259.13;;;0.91;87.03
73748;BME280;62056;52.130;5.428;2023-12-04T04:13:20;101255.91;;;0.89;86.25
73748;BME280;62056;52.130;5.428;2023-12-04T04:15:46;101249.09;;;0.88;86.24
73748;BME280;62056;52.130;5.428;2023-12-04T04:18:13;101249.09;;;0.88;85.71
73748;BME280;62056;52.130;5.428;2023-12-04T04:20:40;101247.25;;;0.88;86.85
73748;BME280;62056;52.130;5.428;2023-12-04T04:23:07;101237.78;;;0.87;86.18
73748;BME280;62056;52.130;5.428;2023-12-04T04:25:33;101242.22;;;0.87;86.10
73748;BME280;62056;52.130;5.428;2023-12-04T04:28:03;101235.41;;;0.86;85.90
73748;BME280;62056;52.130;5.428;2023-12-04T04:30:30;101235.41;;;0.86;85.20
73748;BME280;62056;52.130;5.428;2023-12-04T04:32:57;101230.97;;;0.86;85.55
73748;BME280;62056;52.130;5.428;2023-12-04T04:35:24;101230.16;;;0.86;86.11
73748;BME280;62056;52.130;5.428;2023-12-04T04:37:50;101220.69;;;0.85;86.29
73748;BME280;62056;52.130;5.428;2023-12-04T04:40:17;101223.31;;;0.85;85.62
73748;BME280;62056;52.130;5.428;2023-12-04T04:42:44;101223.31;;;0.85;86.38
73748;BME280;62056;52.130;5.428;2023-12-04T04:45:11;101231.97;;;0.85;86.56
73748;BME280;62056;52.130;5.428;2023-12-04T04:47:38;101224.94;;;0.86;86.46
73748;BME280;62056;52.130;5.428;2023-12-04T04:50:05;101226.50;;;0.87;86.31
73748;BME280;62056;52.130;5.428;2023-12-04T04:52:32;101221.28;;;0.87;86.40
73748;BME280;62056;52.130;5.428;2023-12-04T04:54:59;101219.69;;;0.86;86.21
73748;BME280;62056;52.130;5.428;2023-12-04T04:57:25;101212.63;;;0.86;86.51
73748;BME280;62056;52.130;5.428;2023-12-04T04:59:52;101219.69;;;0.86;86.42
73748;BME280;62056;52.130;5.428;2023-12-04T05:02:19;101210.22;;;0.85;85.97
73748;BME280;62056;52.130;5.428;2023-12-04T05:04:45;101217.88;;;0.86;86.35
73748;BME280;62056;52.130;5.428;2023-12-04T05:07:12;101215.25;;;0.86;86.31
73748;BME280;62056;52.130;5.428;2023-12-04T05:09:39;101215.25;;;0.86;85.68
73748;BME280;62056;52.130;5.428;2023-12-04T05:12:06;101206.59;;;0.86;85.91
73748;BME280;62056;52.130;5.428;2023-12-04T05:14:33;101209.22;;;0.86;85.81
73748;BME280;62056;52.130;5.428;2023-12-04T05:17:00;101206.59;;;0.86;86.28
73748;BME280;62056;52.130;5.428;2023-12-04T05:19:26;101195.28;;;0.85;86.89
73748;BME280;62056;52.130;5.428;2023-12-04T05:21:53;101188.25;;;0.86;86.04
73748;BME280;62056;52.130;5.428;2023-12-04T05:24:20;101187.44;;;0.85;86.11
73748;BME280;62056;52.130;5.428;2023-12-04T05:26:46;101188.47;;;0.84;86.40
73748;BME280;62056;52.130;5.428;2023-12-04T05:29:13;101189.25;;;0.85;86.31
73748;BME280;62056;52.130;5.428;2023-12-04T05:31:40;101187.66;;;0.84;86.43
73748;BME280;62056;52.130;5.428;2023-12-04T05:34:06;101193.13;;;0.82;86.34
73748;BME280;62056;52.130;5.428;2023-12-04T05:36:33;101179.00;;;0.83;86.02
73748;BME280;62056;52.130;5.428;2023-12-04T05:39:00;101174.59;;;0.84;86.64
73748;BME280;62056;52.130;5.428;2023-12-04T05:41:27;101172.16;;;0.82;86.40
73748;BME280;62056;52.130;5.428;2023-12-04T05:43:53;101168.53;;;0.83;87.03
73748;BME280;62056;52.130;5.428;2023-12-04T05:46:21;101160.66;;;0.83;86.83
73748;BME280;62056;52.130;5.428;2023-12-04T05:48:48;101158.88;;;0.84;86.06
73748;BME280;62056;52.130;5.428;2023-12-04T05:51:15;101155.44;;;0.83;86.09
73748;BME280;62056;52.130;5.428;2023-12-04T05:53:41;101154.63;;;0.83;86.44
73748;BME280;62056;52.130;5.428;2023-12-04T05:56:09;101152.00;;;0.83;86.12
73748;BME280;62056;52.130;5.428;2023-12-04T05:58:35;101147.81;;;0.82;86.17
73748;BME280;62056;52.130;5.428;2023-12-04T06:01:02;101140.75;;;0.82;86.64
73748;BME280;62056;52.130;5.428;2023-12-04T06:03:29;101149.41;;;0.83;86.37
73748;BME280;62056;52.130;5.428;2023-12-04T06:05:56;101153.63;;;0.84;85.80
73748;BME280;62056;52.130;5.428;2023-12-04T06:08:26;101145.19;;;0.82;85.99
73748;BME280;62056;52.130;5.428;2023-12-04T06:10:54;101134.47;;;0.83;85.56
73748;BME280;62056;52.130;5.428;2023-12-04T06:13:20;101143.97;;;0.84;86.15
73748;BME280;62056;52.130;5.428;2023-12-04T06:15:47;101138.72;;;0.84;86.04
73748;BME280;62056;52.130;5.428;2023-12-04T06:18:14;101141.34;;;0.84;85.98
73748;BME280;62056;52.130;5.428;2023-12-04T06:20:41;101144.75;;;0.85;86.00
73748;BME280;62056;52.130;5.428;2023-12-04T06:23:08;101136.88;;;0.85;86.20
73748;BME280;62056;52.130;5.428;2023-12-04T06:25:35;101140.31;;;0.85;86.23
73748;BME280;62056;52.130;5.428;2023-12-04T06:28:02;101139.31;;;0.86;86.10
73748;BME280;62056;52.130;5.428;2023-12-04T06:30:29;101139.31;;;0.86;85.93
73748;BME280;62056;52.130;5.428;2023-12-04T06:32:56;101128.03;;;0.86;85.92
73748;BME280;62056;52.130;5.428;2023-12-04T06:35:23;101129.41;;;0.88;85.97
73748;BME280;62056;52.130;5.428;2023-12-04T06:37:53;101124.97;;;0.89;85.98
73748;BME280;62056;52.130;5.428;2023-12-04T06:40:21;101128.38;;;0.89;85.93
73748;BME280;62056;52.130;5.428;2023-12-04T06:42:48;101120.78;;;0.88;85.79
73748;BME280;62056;52.130;5.428;2023-12-04T06:45:15;101110.06;;;0.89;86.14
73748;BME280;62056;52.130;5.428;2023-12-04T06:47:43;101102.44;;;0.88;85.79
73748;BME280;62056;52.130;5.428;2023-12-04T06:50:12;101108.47;;;0.88;86.04
73748;BME280;62056;52.130;5.428;2023-12-04T06:52:38;101095.59;;;0.87;85.78
73748;BME280;62056;52.130;5.428;2023-12-04T06:55:05;101098.78;;;0.89;85.28
73748;BME280;62056;52.130;5.428;2023-12-04T06:57:33;101093.56;;;0.89;85.23
73748;BME280;62056;52.130;5.428;2023-12-04T07:00:02;101092.75;;;0.88;85.72
73748;BME280;62056;52.130;5.428;2023-12-04T07:02:48;101084.69;;;0.90;85.63
73748;BME280;62056;52.130;5.428;2023-12-04T07:05:16;101088.53;;;0.87;85.50
73748;BME280;62056;52.130;5.428;2023-12-04T07:07:43;101089.94;;;0.90;85.36
73748;BME280;62056;52.130;5.428;2023-12-04T07:10:09;101097.78;;;0.90;85.47
73748;BME280;62056;52.130;5.428;2023-12-04T07:12:41;101090.13;;;0.88;85.26
73748;BME280;62056;52.130;5.428;2023-12-04T07:15:09;101072.59;;;0.89;85.29
73748;BME280;62056;52.130;5.428;2023-12-04T07:17:36;101071.59;;;0.90;85.48
73748;BME280;62056;52.130;5.428;2023-12-04T07:20:03;101060.31;;;0.89;85.50
73748;BME280;62056;52.130;5.428;2023-12-04T07:22:32;101062.72;;;0.91;85.49
73748;BME280;62056;52.130;5.428;2023-12-04T07:25:05;101063.50;;;0.91;85.30
73748;BME280;62056;52.130;5.428;2023-12-04T07:27:33;101060.88;;;0.91;85.31
73748;BME280;62056;52.130;5.428;2023-12-04T07:30:01;101066.13;;;0.91;85.44
73748;BME280;62056;52.130;5.428;2023-12-04T07:32:29;101064.34;;;0.92;85.06
73748;BME280;62056;52.130;5.428;2023-12-04T07:34:57;101061.25;;;0.95;85.41
73748;BME280;62056;52.130;5.428;2023-12-04T07:37:23;101058.00;;;0.99;85.45
73748;BME280;62056;52.130;5.428;2023-12-04T07:39:50;101065.19;;;1.04;85.77
73748;BME280;62056;52.130;5.428;2023-12-04T07:42:17;101055.47;;;1.11;85.20
73748;BME280;62056;52.130;5.428;2023-12-04T07:44:43;101066.44;;;1.20;85.68
73748;BME280;62056;52.130;5.428;2023-12-04T07:47:10;101059.56;;;1.26;85.85
73748;BME280;62056;52.130;5.428;2023-12-04T07:49:37;101062.66;;;1.34;85.51
73748;BME280;62056;52.130;5.428;2023-12-04T07:52:04;101055.31;;;1.43;87.06
73748;BME280;62056;52.130;5.428;2023-12-04T07:54:31;101061.06;;;1.52;87.07
73748;BME280;62056;52.130;5.428;2023-12-04T07:56:58;101045.69;;;1.55;85.38
73748;BME280;62056;52.130;5.428;2023-12-04T07:59:24;101055.09;;;1.63;86.79
73748;BME280;62056;52.130;5.428;2023-12-04T08:01:51;101046.91;;;1.71;85.87
73748;BME280;62056;52.130;5.428;2023-12-04T08:04:18;101049.44;;;1.78;85.90
73748;BME280;62056;52.130;5.428;2023-12-04T08:06:45;101051.97;;;1.85;87.20
73748;BME280;62056;52.130;5.428;2023-12-04T08:09:12;101058.94;;;1.91;86.96
73748;BME280;62056;52.130;5.428;2023-12-04T08:11:39;101048.38;;;1.97;86.52
73748;BME280;62056;52.130;5.428;2023-12-04T08:14:05;101058.19;;;2.02;88.10
73748;BME280;62056;52.130;5.428;2023-12-04T08:16:32;101051.72;;;2.05;84.01
73748;BME280;62056;52.130;5.428;2023-12-04T08:19:01;101061.88;;;2.13;88.43
73748;BME280;62056;52.130;5.428;2023-12-04T08:21:28;101055.38;;;2.15;88.02
73748;BME280;62056;52.130;5.428;2023-12-04T08:23:55;101053.44;;;2.22;89.13
73748;BME280;62056;52.130;5.428;2023-12-04T08:26:23;101061.31;;;2.22;83.87
73748;BME280;62056;52.130;5.428;2023-12-04T08:28:52;101059.41;;;2.30;88.59
73748;BME280;62056;52.130;5.428;2023-12-04T08:31:19;101055.06;;;2.35;89.41
73748;BME280;62056;52.130;5.428;2023-12-04T08:33:45;101046.88;;;2.32;83.16
73748;BME280;62056;52.130;5.428;2023-12-04T08:36:13;101046.53;;;2.40;85.53
73748;BME280;62056;52.130;5.428;2023-12-04T08:38:39;101044.81;;;2.46;87.82
73748;BME280;62056;52.130;5.428;2023-12-04T08:41:06;101047.00;;;2.49;90.10
73748;BME280;62056;52.130;5.428;2023-12-04T08:43:33;101039.91;;;2.49;89.58
73748;BME280;62056;52.130;5.428;2023-12-04T08:46:01;101032.84;;;2.50;85.89
73748;BME280;62056;52.130;5.428;2023-12-04T08:48:28;101028.72;;;2.54;85.85
73748;BME280;62056;52.130;5.428;2023-12-04T08:50:55;101030.91;;;2.57;86.15
73748;BME280;62056;52.130;5.428;2023-12-04T08:53:23;101021.78;;;2.59;85.33
73748;BME280;62056;52.130;5.428;2023-12-04T08:55:49;101020.28;;;2.63;84.33
73748;BME280;62056;52.130;5.428;2023-12-04T08:58:18;101014.13;;;2.70;86.95
73748;BME280;62056;52.130;5.428;2023-12-04T09:00:45;101005.22;;;2.71;85.72
73748;BME280;62056;52.130;5.428;2023-12-04T09:03:12;101016.28;;;2.73;82.98
73748;BME280;62056;52.130;5.428;2023-12-04T09:05:51;101014.56;;;2.78;86.17
73748;BME280;62056;52.130;5.428;2023-12-04T09:08:18;101001.44;;;2.78;82.89
73748;BME280;62056;52.130;5.428;2023-12-04T09:11:02;101006.81;;;2.83;83.75
73748;BME280;62056;52.130;5.428;2023-12-04T09:13:48;101009.53;;;2.89;81.24
73748;BME280;62056;52.130;5.428;2023-12-04T09:16:15;101005.22;;;2.94;82.66
73748;BME280;62056;52.130;5.428;2023-12-04T09:18:42;101000.97;;;2.93;83.14
73748;BME280;62056;52.130;5.428;2023-12-04T09:21:09;100995.00;;;2.98;86.40
73748;BME280;62056;52.130;5.428;2023-12-04T09:23:36;101006.34;;;2.98;83.55
73748;BME280;62056;52.130;5.428;2023-12-04T09:26:02;100994.09;;;3.04;82.84
73748;BME280;62056;52.130;5.428;2023-12-04T09:28:29;100996.72;;;3.04;80.41
73748;BME280;62056;52.130;5.428;2023-12-04T09:30:57;100993.41;;;3.09;83.24
73748;BME280;62056;52.130;5.428;2023-12-04T09:33:24;100987.69;;;3.12;81.05
73748;BME280;62056;52.130;5.428;2023-12-04T09:35:51;100989.38;;;3.18;85.11
73748;BME280;62056;52.130;5.428;2023-12-04T09:38:18;100994.19;;;3.21;84.98
73748;BME280;62056;52.130;5.428;2023-12-04T09:40:44;100986.88;;;3.23;82.25
73748;BME280;62056;52.130;5.428;2023-12-04T09:43:11;100991.88;;;3.24;82.61
73748;BME280;62056;52.130;5.428;2023-12-04T09:45:39;100988.00;;;3.27;83.28
73748;BME280;62056;52.130;5.428;2023-12-04T09:48:08;100994.84;;;3.28;79.88
73748;BME280;62056;52.130;5.428;2023-12-04T09:50:36;100983.63;;;3.33;82.28
73748;BME280;62056;52.130;5.428;2023-12-04T09:53:06;100983.41;;;3.34;80.47
73748;BME280;62056;52.130;5.428;2023-12-04T09:55:36;100978.47;;;3.38;79.46
73748;BME280;62056;52.130;5.428;2023-12-04T09:58:03;100980.63;;;3.41;79.16
73748;BME280;62056;52.130;5.428;2023-12-04T10:00:31;100980.16;;;3.44;76.32
73748;BME280;62056;52.130;5.428;2023-12-04T10:03:01;100975.78;;;3.50;78.66
73748;BME280;62056;52.130;5.428;2023-12-04T10:05:28;100976.91;;;3.54;80.71
73748;BME280;62056;52.130;5.428;2023-12-04T10:07:57;100977.72;;;3.54;76.51
73748;BME280;62056;52.130;5.428;2023-12-04T10:10:24;100972.78;;;3.58;77.57
73748;BME280;62056;52.130;5.428;2023-12-04T10:12:51;100963.38;;;3.62;75.15
73748;BME280;62056;52.130;5.428;2023-12-04T10:15:22;100959.03;;;3.68;79.69
73748;BME280;62056;52.130;5.428;2023-12-04T10:17:49;100954.31;;;3.70;75.48
73748;BME280;62056;52.130;5.428;2023-12-04T10:20:18;100949.38;;;3.73;78.81
73748;BME280;62056;52.130;5.428;2023-12-04T10:22:55;100945.72;;;3.74;78.32
73748;BME280;62056;52.130;5.428;2023-12-04T10:25:27;100947.88;;;3.77;79.86
73748;BME280;62056;52.130;5.428;2023-12-04T10:31:17;100938.00;;;3.84;78.45
73748;BME280;62056;52.130;5.428;2023-12-04T10:33:45;100930.88;;;3.85;76.87
73748;BME280;62056;52.130;5.428;2023-12-04T10:36:17;100924.66;;;3.91;75.42
73748;BME280;62056;52.130;5.428;2023-12-04T10:38:46;100920.53;;;3.95;74.98
73748;BME280;62056;52.130;5.428;2023-12-04T10:41:13;100921.63;;;3.99;75.41
73748;BME280;62056;52.130;5.428;2023-12-04T10:43:47;100913.28;;;4.02;73.34
73748;BME280;62056;52.130;5.428;2023-12-04T10:46:30;100903.38;;;4.10;77.56
73748;BME280;62056;52.130;5.428;2023-12-04T10:48:59;100905.78;;;4.11;75.44
73748;BME280;62056;52.130;5.428;2023-12-04T10:51:35;100901.06;;;4.13;75.01
73748;BME280;62056;52.130;5.428;2023-12-04T10:58:18;100886.16;;;4.19;77.87
73748;BME280;62056;52.130;5.428;2023-12-04T11:00:53;100889.25;;;4.16;74.39
73748;BME280;62056;52.130;5.428;2023-12-04T11:03:58;100878.50;;;4.17;75.83
73748;BME280;62056;52.130;5.428;2023-12-04T11:06:28;100873.00;;;4.19;75.23
73748;BME280;62056;52.130;5.428;2023-12-04T11:08:58;100871.69;;;4.21;73.52
73748;BME280;62056;52.130;5.428;2023-12-04T11:11:30;100864.34;;;4.23;74.62
73748;BME280;62056;52.130;5.428;2023-12-04T11:14:01;100856.22;;;4.25;71.90
73748;BME280;62056;52.130;5.428;2023-12-04T11:16:46;100851.81;;;4.31;74.82
73748;BME280;62056;52.130;5.428;2023-12-04T11:19:20;100851.00;;;4.30;76.24
73748;BME280;62056;52.130;5.428;2023-12-04T11:21:52;100852.59;;;4.31;76.24
73748;BME280;62056;52.130;5.428;2023-12-04T11:24:21;100842.00;;;4.26;75.10
73748;BME280;62056;52.130;5.428;2023-12-04T11:26:50;100844.97;;;4.30;73.45
73748;BME280;62056;52.130;5.428;2023-12-04T11:29:17;100840.25;;;4.32;74.02
73748;BME280;62056;52.130;5.428;2023-12-04T11:31:45;100826.03;;;4.33;75.18
73748;BME280;62056;52.130;5.428;2023-12-04T11:34:13;100822.38;;;4.34;74.76
73748;BME280;62056;52.130;5.428;2023-12-04T11:36:40;100821.31;;;4.35;73.17
73748;BME280;62056;52.130;5.428;2023-12-04T11:39:10;100822.66;;;4.37;71.80
73748;BME280;62056;52.130;5.428;2023-12-04T11:41:41;100823.75;;;4.41;72.54
73748;BME280;62056;52.130;5.428;2023-12-04T11:44:13;100815.38;;;4.44;73.57
73748;BME280;62056;52.130;5.428;2023-12-04T11:46:57;100815.63;;;4.43;72.29
73748;BME280;62056;52.130;5.428;2023-12-04T11:49:33;100815.63;;;4.43;72.79
73748;BME280;62056;52.130;5.428;2023-12-04T11:52:05;100821.19;;;4.46;73.82
73748;BME280;62056;52.130;5.428;2023-12-04T11:54:59;100808.59;;;4.49;71.79
73748;BME280;62056;52.130;5.428;2023-12-04T11:57:27;100810.44;;;4.48;71.88
73748;BME280;62056;52.130;5.428;2023-12-04T12:05:42;100793.81;;;4.47;73.62
73748;BME280;62056;52.130;5.428;2023-12-04T12:08:12;100792.78;;;4.49;73.75
73748;BME280;62056;52.130;5.428;2023-12-04T12:10:41;100792.25;;;4.46;70.15
73748;BME280;62056;52.130;5.428;2023-12-04T12:13:10;100788.53;;;4.47;73.02
73748;BME280;62056;52.130;5.428;2023-12-04T12:15:37;100788.25;;;4.44;72.46
73748;BME280;62056;52.130;5.428;2023-12-04T12:18:08;100786.19;;;4.46;71.39
73748;BME280;62056;52.130;5.428;2023-12-04T12:20:37;100789.09;;;4.50;72.31
73748;BME280;62056;52.130;5.428;2023-12-04T12:23:09;100775.44;;;4.53;73.81
73748;BME280;62056;52.130;5.428;2023-12-04T12:25:36;100786.31;;;4.56;75.98
73748;BME280;62056;52.130;5.428;2023-12-04T12:28:06;100776.25;;;4.53;75.40
73748;BME280;62056;52.130;5.428;2023-12-04T12:30:33;100772.75;;;4.47;71.81
73748;BME280;62056;52.130;5.428;2023-12-04T12:33:02;100777.78;;;4.49;74.06
73748;BME280;62056;52.130;5.428;2023-12-04T12:35:29;100775.13;;;4.49;73.14
73748;BME280;62056;52.130;5.428;2023-12-04T12:37:58;100769.41;;;4.52;72.49
73748;BME280;62056;52.130;5.428;2023-12-04T12:40:29;100771.75;;;4.54;72.99
73748;BME280;62056;52.130;5.428;2023-12-04T12:43:06;100762.88;;;4.60;75.01
73748;BME280;62056;52.130;5.428;2023-12-04T12:45:47;100751.00;;;4.57;70.88
73748;BME280;62056;52.130;5.428;2023-12-04T12:48:17;100751.53;;;4.59;73.06
73748;BME280;62056;52.130;5.428;2023-12-04T12:51:02;100742.59;;;4.60;72.83
73748;BME280;62056;52.130;5.428;2023-12-04T12:53:33;100733.34;;;4.58;72.78
73748;BME280;62056;52.130;5.428;2023-12-04T12:56:00;100732.31;;;4.59;71.89
73748;BME280;62056;52.130;5.428;2023-12-04T12:58:29;100715.72;;;4.58;70.74
73748;BME280;62056;52.130;5.428;2023-12-04T13:01:09;100715.72;;;4.58;74.48
73748;BME280;62056;52.130;5.428;2023-12-04T13:03:52;100707.53;;;4.55;72.84
73748;BME280;62056;52.130;5.428;2023-12-04T13:06:20;100712.28;;;4.58;74.42
73748;BME280;62056;52.130;5.428;2023-12-04T13:08:50;100712.25;;;4.53;70.59
73748;BME280;62056;52.130;5.428;2023-12-04T13:11:46;100706.97;;;4.53;71.63
73748;BME280;62056;52.130;5.428;2023-12-04T13:14:14;100698.78;;;4.49;72.67
73748;BME280;62056;52.130;5.428;2023-12-04T13:16:43;100699.31;;;4.51;71.83
73748;BME280;62056;52.130;5.428;2023-12-04T13:19:18;100691.97;;;4.53;72.86